createdAt,value
2023-05-21T00:00:45.703Z,20.82
2023-05-21T00:01:45.690Z,20.83
2023-05-21T00:02:45.725Z,20.83
2023-05-21T00:03:45.817Z,20.83
2023-05-21T00:04:45.612Z,20.82
2023-05-21T00:05:45.583Z,20.82
2023-05-21T00:06:45.536Z,20.82
2023-05-21T00:07:48.525Z,20.81
2023-05-21T00:08:45.492Z,20.81
2023-05-21T00:09:45.469Z,20.82
2023-05-21T00:10:45.439Z,20.82
2023-05-21T00:11:45.417Z,20.81
2023-05-21T00:12:45.420Z,20.82
2023-05-21T00:13:45.371Z,20.81
2023-05-21T00:14:45.360Z,20.81
2023-05-21T00:15:45.317Z,20.81
2023-05-21T00:16:45.420Z,20.81
2023-05-21T00:17:45.303Z,20.81
2023-05-21T00:18:45.283Z,20.81
2023-05-21T00:19:45.225Z,20.79
2023-05-21T00:20:45.186Z,20.81
2023-05-21T00:21:45.194Z,20.79
2023-05-21T00:22:45.138Z,20.79
2023-05-21T00:23:45.128Z,20.79
2023-05-21T00:24:45.075Z,20.78
2023-05-21T00:25:45.056Z,20.79
2023-05-21T00:26:45.039Z,20.79
2023-05-21T00:27:45.024Z,20.79
2023-05-21T00:28:44.967Z,20.78
2023-05-21T00:29:44.953Z,20.78
2023-05-21T00:30:44.940Z,20.78
2023-05-21T00:31:44.985Z,20.78
2023-05-21T00:32:44.895Z,20.78
2023-05-21T00:33:44.863Z,20.78
2023-05-21T00:34:44.827Z,20.76
2023-05-21T00:35:44.819Z,20.78
2023-05-21T00:36:44.777Z,20.78
2023-05-21T00:37:44.748Z,20.76
2023-05-21T00:38:44.717Z,20.76
2023-05-21T00:39:44.749Z,20.76
2023-05-21T00:40:44.690Z,20.76
2023-05-21T00:41:44.652Z,20.76
2023-05-21T00:42:44.619Z,20.76
2023-05-21T00:43:44.622Z,20.76
2023-05-21T00:44:44.591Z,20.76
2023-05-21T00:45:44.615Z,20.76
2023-05-21T00:46:44.522Z,20.75
2023-05-21T00:47:44.549Z,20.75
2023-05-21T00:48:44.489Z,20.75
2023-05-21T00:49:44.496Z,20.75
2023-05-21T00:50:44.434Z,20.75
2023-05-21T00:51:44.427Z,20.76
2023-05-21T00:52:44.412Z,20.76
2023-05-21T00:53:44.405Z,20.75
2023-05-21T00:54:44.379Z,20.75
2023-05-21T00:55:44.349Z,20.75
2023-05-21T00:56:44.351Z,20.75
2023-05-21T00:57:44.316Z,20.75
2023-05-21T00:58:44.300Z,20.73
2023-05-21T00:59:44.283Z,20.73
2023-05-21T01:00:44.264Z,20.73
2023-05-21T01:01:44.278Z,20.75
2023-05-21T01:02:44.468Z,20.75
2023-05-21T01:03:44.334Z,20.72
2023-05-21T01:04:44.188Z,20.73
2023-05-21T01:05:44.245Z,20.72
2023-05-21T01:06:44.164Z,20.72
2023-05-21T01:07:44.180Z,20.72
2023-05-21T01:08:44.151Z,20.71
2023-05-21T01:09:44.153Z,20.72
2023-05-21T01:10:44.092Z,20.71
2023-05-21T01:11:44.082Z,20.71
2023-05-21T01:12:44.089Z,20.71
2023-05-21T01:13:44.059Z,20.72
2023-05-21T01:14:44.035Z,20.71
2023-05-21T01:15:44.014Z,20.71
2023-05-21T01:16:44.084Z,20.71
2023-05-21T01:17:44.056Z,20.71
2023-05-21T01:18:44.078Z,20.71
2023-05-21T01:19:44.160Z,20.71
2023-05-21T01:20:43.918Z,20.69
2023-05-21T01:21:43.921Z,20.69
2023-05-21T01:22:43.939Z,20.71
2023-05-21T01:23:43.866Z,20.69
2023-05-21T01:24:43.851Z,20.72
2023-05-21T01:25:43.841Z,20.71
2023-05-21T01:26:43.834Z,20.69
2023-05-21T01:27:43.807Z,20.69
2023-05-21T01:28:43.788Z,20.68
2023-05-21T01:29:43.796Z,20.69
2023-05-21T01:30:43.770Z,20.71
2023-05-21T01:31:43.753Z,20.68
2023-05-21T01:32:43.796Z,20.69
2023-05-21T01:33:43.747Z,20.68
2023-05-21T01:34:43.683Z,20.68
2023-05-21T01:35:43.694Z,20.66
2023-05-21T01:36:43.653Z,20.66
2023-05-21T01:37:43.652Z,20.66
2023-05-21T01:38:43.647Z,20.66
2023-05-21T01:39:43.632Z,20.68
2023-05-21T01:40:43.642Z,20.68
2023-05-21T01:41:43.609Z,20.66
2023-05-21T01:42:43.585Z,20.68
2023-05-21T01:43:43.589Z,20.68
2023-05-21T01:44:43.605Z,20.66
2023-05-21T01:45:43.587Z,20.66
2023-05-21T01:46:43.568Z,20.66
2023-05-21T01:47:43.557Z,20.64
2023-05-21T01:48:43.516Z,20.66
2023-05-21T01:49:43.511Z,20.66
2023-05-21T01:50:43.482Z,20.66
2023-05-21T01:51:43.458Z,20.64
2023-05-21T01:52:43.435Z,20.66
2023-05-21T01:53:43.436Z,20.64
2023-05-21T01:54:43.413Z,20.64
2023-05-21T01:55:43.382Z,20.66
2023-05-21T01:56:43.362Z,20.64
2023-05-21T01:57:43.349Z,20.64
2023-05-21T01:58:43.373Z,20.64
2023-05-21T01:59:43.314Z,20.64
2023-05-21T02:00:43.296Z,20.63
2023-05-21T02:01:43.315Z,20.63
2023-05-21T02:02:43.282Z,20.63
2023-05-21T02:03:43.360Z,20.63
2023-05-21T02:04:43.225Z,20.64
2023-05-21T02:05:43.212Z,20.63
2023-05-21T02:06:49.199Z,20.61
2023-05-21T02:07:43.184Z,20.61
2023-05-21T02:08:43.158Z,20.63
2023-05-21T02:09:43.131Z,20.63
2023-05-21T02:10:43.107Z,20.63
2023-05-21T02:11:43.089Z,20.61
2023-05-21T02:12:43.088Z,20.61
2023-05-21T02:13:43.043Z,20.61
2023-05-21T02:14:43.039Z,20.63
2023-05-21T02:15:43.000Z,20.61
2023-05-21T02:16:43.126Z,20.60
2023-05-21T02:17:43.038Z,20.60
2023-05-21T02:18:42.955Z,20.60
2023-05-21T02:19:42.946Z,20.61
2023-05-21T02:20:42.905Z,20.61
2023-05-21T02:21:42.927Z,20.60
2023-05-21T02:22:42.896Z,20.60
2023-05-21T02:23:42.853Z,20.60
2023-05-21T02:24:42.854Z,20.58
2023-05-21T02:25:42.816Z,20.58
2023-05-21T02:26:42.791Z,20.60
2023-05-21T02:27:42.809Z,20.60
2023-05-21T02:28:42.756Z,20.60
2023-05-21T02:29:42.717Z,20.58
2023-05-21T02:30:42.691Z,20.60
2023-05-21T02:31:42.730Z,20.58
2023-05-21T02:32:43.138Z,20.58
2023-05-21T02:33:42.665Z,20.58
2023-05-21T02:34:42.619Z,20.58
2023-05-21T02:35:42.868Z,20.58
2023-05-21T02:36:42.595Z,20.58
2023-05-21T02:37:42.560Z,20.58
2023-05-21T02:38:42.536Z,20.58
2023-05-21T02:39:42.511Z,20.57
2023-05-21T02:40:42.514Z,20.57
2023-05-21T02:41:42.495Z,20.57
2023-05-21T02:42:42.461Z,20.57
2023-05-21T02:43:42.447Z,20.57
2023-05-21T02:44:42.422Z,20.56
2023-05-21T02:45:42.449Z,20.57
2023-05-21T02:46:42.381Z,20.56
2023-05-21T02:47:42.412Z,20.56
2023-05-21T02:48:42.340Z,20.57
2023-05-21T02:49:42.342Z,20.57
2023-05-21T02:50:42.329Z,20.57
2023-05-21T02:51:42.298Z,20.56
2023-05-21T02:52:42.271Z,20.56
2023-05-21T02:53:42.304Z,20.54
2023-05-21T02:54:42.271Z,20.54
2023-05-21T02:55:42.252Z,20.56
2023-05-21T02:56:42.201Z,20.54
2023-05-21T02:57:42.190Z,20.54
2023-05-21T02:58:42.179Z,20.56
2023-05-21T02:59:42.163Z,20.56
2023-05-21T03:00:42.146Z,20.54
2023-05-21T03:01:42.142Z,20.54
2023-05-21T03:02:42.157Z,20.51
2023-05-21T03:03:42.125Z,20.53
2023-05-21T03:04:42.045Z,20.53
2023-05-21T03:05:42.036Z,20.53
2023-05-21T03:06:42.010Z,20.53
2023-05-21T03:07:42.051Z,20.53
2023-05-21T03:08:41.995Z,20.54
2023-05-21T03:09:41.908Z,20.51
2023-05-21T03:10:41.887Z,20.51
2023-05-21T03:11:41.860Z,20.53
2023-05-21T03:12:41.846Z,20.51
2023-05-21T03:13:41.857Z,20.51
2023-05-21T03:14:41.804Z,20.51
2023-05-21T03:15:41.779Z,20.54
2023-05-21T03:16:41.862Z,20.53
2023-05-21T03:17:41.807Z,20.54
2023-05-21T03:18:41.728Z,20.53
2023-05-21T03:19:41.697Z,20.53
2023-05-21T03:20:41.644Z,20.53
2023-05-21T03:21:41.626Z,20.53
2023-05-21T03:22:41.617Z,20.51
2023-05-21T03:23:41.598Z,20.53
2023-05-21T03:24:41.562Z,20.53
2023-05-21T03:25:41.544Z,20.51
2023-05-21T03:26:41.542Z,20.51
2023-05-21T03:27:41.533Z,20.53
2023-05-21T03:28:41.494Z,20.51
2023-05-21T03:29:41.492Z,20.50
2023-05-21T03:30:41.464Z,20.50
2023-05-21T03:31:41.556Z,20.50
2023-05-21T03:32:41.616Z,20.50
2023-05-21T03:33:41.443Z,20.50
2023-05-21T03:34:41.428Z,20.50
2023-05-21T03:35:41.395Z,20.53
2023-05-21T03:36:41.373Z,20.56
2023-05-21T03:37:41.347Z,20.57
2023-05-21T03:38:41.315Z,20.58
2023-05-21T03:39:41.304Z,20.60
2023-05-21T03:40:41.321Z,20.61
2023-05-21T03:41:41.275Z,20.63
2023-05-21T03:42:41.257Z,20.63
2023-05-21T03:43:41.250Z,20.64
2023-05-21T03:44:41.222Z,20.64
2023-05-21T03:45:43.559Z,20.66
2023-05-21T03:46:41.215Z,20.66
2023-05-21T03:47:41.192Z,20.66
2023-05-21T03:48:41.138Z,20.68
2023-05-21T03:49:41.133Z,20.68
2023-05-21T03:50:41.113Z,20.68
2023-05-21T03:51:41.083Z,20.68
2023-05-21T03:52:41.062Z,20.68
2023-05-21T03:53:41.049Z,20.68
2023-05-21T03:54:41.046Z,20.69
2023-05-21T03:55:41.012Z,20.69
2023-05-21T03:56:40.985Z,20.69
2023-05-21T03:57:40.974Z,20.71
2023-05-21T03:58:40.948Z,20.71
2023-05-21T03:59:40.947Z,20.71
2023-05-21T04:00:40.921Z,20.71
2023-05-21T04:01:40.894Z,20.72
2023-05-21T04:02:40.972Z,20.73
2023-05-21T04:03:41.329Z,20.72
2023-05-21T04:04:40.872Z,20.73
2023-05-21T04:05:40.804Z,20.73
2023-05-21T04:06:40.782Z,20.73
2023-05-21T04:07:40.761Z,20.75
2023-05-21T04:08:40.745Z,20.75
2023-05-21T04:09:40.715Z,20.75
2023-05-21T04:10:40.688Z,20.76
2023-05-21T04:11:40.675Z,20.75
2023-05-21T04:12:40.649Z,20.75
2023-05-21T04:13:40.651Z,20.76
2023-05-21T04:14:40.604Z,20.78
2023-05-21T04:15:40.611Z,20.76
2023-05-21T04:16:40.552Z,20.78
2023-05-21T04:17:40.632Z,20.79
2023-05-21T04:18:40.502Z,20.79
2023-05-21T04:19:40.516Z,20.79
2023-05-21T04:20:40.456Z,20.79
2023-05-21T04:21:40.450Z,20.81
2023-05-21T04:22:40.436Z,20.81
2023-05-21T04:23:40.410Z,20.82
2023-05-21T04:24:40.379Z,20.82
2023-05-21T04:25:40.356Z,20.82
2023-05-21T04:26:40.327Z,20.82
2023-05-21T04:27:40.319Z,20.82
2023-05-21T04:28:40.273Z,20.82
2023-05-21T04:29:40.254Z,20.83
2023-05-21T04:30:40.231Z,20.85
2023-05-21T04:31:40.277Z,20.85
2023-05-21T04:32:40.201Z,20.83
2023-05-21T04:33:40.159Z,20.85
2023-05-21T04:34:40.118Z,20.85
2023-05-21T04:35:40.094Z,20.87
2023-05-21T04:36:40.088Z,20.88
2023-05-21T04:37:40.049Z,20.88
2023-05-21T04:38:40.004Z,20.88
2023-05-21T04:39:40.007Z,20.88
2023-05-21T04:40:39.976Z,20.88
2023-05-21T04:41:39.948Z,20.90
2023-05-21T04:42:39.909Z,20.90
2023-05-21T04:43:39.874Z,20.91
2023-05-21T04:44:39.848Z,20.91
2023-05-21T04:45:39.829Z,20.91
2023-05-21T04:46:41.803Z,20.93
2023-05-21T04:47:39.814Z,20.93
2023-05-21T04:48:39.725Z,20.94
2023-05-21T04:49:39.709Z,20.94
2023-05-21T04:50:39.687Z,20.96
2023-05-21T04:51:39.652Z,20.96
2023-05-21T04:52:39.621Z,20.97
2023-05-21T04:53:39.597Z,20.97
2023-05-21T04:54:39.579Z,20.98
2023-05-21T04:55:39.576Z,20.97
2023-05-21T04:56:39.516Z,21.00
2023-05-21T04:57:39.495Z,21.00
2023-05-21T04:58:39.452Z,21.00
2023-05-21T04:59:39.446Z,21.00
2023-05-21T05:00:39.442Z,21.01
2023-05-21T05:01:39.372Z,21.00
2023-05-21T05:02:39.354Z,21.01
2023-05-21T05:03:39.389Z,21.01
2023-05-21T05:04:39.311Z,21.03
2023-05-21T05:05:39.542Z,21.03
2023-05-21T05:06:39.229Z,21.05
2023-05-21T05:07:39.211Z,21.05
2023-05-21T05:08:39.185Z,21.05
2023-05-21T05:09:39.172Z,21.06
2023-05-21T05:10:39.115Z,21.06
2023-05-21T05:11:39.088Z,21.08
2023-05-21T05:12:39.067Z,21.08
2023-05-21T05:13:39.052Z,21.06
2023-05-21T05:14:39.005Z,21.09
2023-05-21T05:15:39.006Z,21.09
2023-05-21T05:16:39.037Z,21.09
2023-05-21T05:17:38.940Z,21.11
2023-05-21T05:18:38.910Z,21.11
2023-05-21T05:19:38.866Z,21.11
2023-05-21T05:20:38.823Z,21.09
2023-05-21T05:21:38.805Z,21.12
2023-05-21T05:22:38.772Z,21.12
2023-05-21T05:23:38.762Z,21.12
2023-05-21T05:24:38.694Z,21.12
2023-05-21T05:25:38.942Z,21.13
2023-05-21T05:26:38.660Z,21.15
2023-05-21T05:27:38.785Z,21.15
2023-05-21T05:28:38.587Z,21.15
2023-05-21T05:29:38.568Z,21.15
2023-05-21T05:30:38.600Z,21.16
2023-05-21T05:31:38.533Z,21.16
2023-05-21T05:32:38.536Z,21.18
2023-05-21T05:33:38.474Z,21.18
2023-05-21T05:34:38.429Z,21.18
2023-05-21T05:35:38.504Z,21.18
2023-05-21T05:36:38.383Z,21.19
2023-05-21T05:37:38.342Z,21.21
2023-05-21T05:38:38.307Z,21.19
2023-05-21T05:39:38.272Z,21.21
2023-05-21T05:40:38.233Z,21.22
2023-05-21T05:41:38.222Z,21.22
2023-05-21T05:42:38.173Z,21.24
2023-05-21T05:43:38.148Z,21.24
2023-05-21T05:44:38.114Z,21.24
2023-05-21T05:45:38.756Z,21.26
2023-05-21T05:46:38.260Z,21.27
2023-05-21T05:47:38.061Z,21.27
2023-05-21T05:48:38.012Z,21.27
2023-05-21T05:49:37.986Z,21.28
2023-05-21T05:50:37.972Z,21.28
2023-05-21T05:51:37.932Z,21.28
2023-05-21T05:52:37.909Z,21.30
2023-05-21T05:53:37.878Z,21.31
2023-05-21T05:54:37.851Z,21.33
2023-05-21T05:55:38.244Z,21.33
2023-05-21T05:56:37.801Z,21.33
2023-05-21T05:57:37.771Z,21.33
2023-05-21T05:58:37.741Z,21.33
2023-05-21T05:59:37.730Z,21.34
2023-05-21T06:00:37.702Z,21.36
2023-05-21T06:01:37.676Z,21.37
2023-05-21T06:02:37.705Z,21.37
2023-05-21T06:03:37.734Z,21.37
2023-05-21T06:04:37.746Z,21.37
2023-05-21T06:05:37.970Z,21.37
2023-05-21T06:06:37.520Z,21.37
2023-05-21T06:07:37.484Z,21.38
2023-05-21T06:08:38.319Z,21.38
2023-05-21T06:09:37.448Z,21.37
2023-05-21T06:10:37.416Z,21.38
2023-05-21T06:11:37.389Z,21.40
2023-05-21T06:12:37.374Z,21.40
2023-05-21T06:13:37.361Z,21.42
2023-05-21T06:14:37.330Z,21.43
2023-05-21T06:15:37.491Z,21.43
2023-05-21T06:16:37.380Z,21.45
2023-05-21T06:17:37.279Z,21.46
2023-05-21T06:18:37.229Z,21.45
2023-05-21T06:19:37.180Z,21.46
2023-05-21T06:20:37.154Z,21.46
2023-05-21T06:21:37.137Z,21.48
2023-05-21T06:22:37.111Z,21.49
2023-05-21T06:23:37.084Z,21.49
2023-05-21T06:24:37.032Z,21.51
2023-05-21T06:25:37.248Z,21.51
2023-05-21T06:26:36.984Z,21.49
2023-05-21T06:27:36.964Z,21.48
2023-05-21T06:28:36.933Z,21.49
2023-05-21T06:29:36.903Z,21.49
2023-05-21T06:30:36.864Z,21.48
2023-05-21T06:31:36.840Z,21.49
2023-05-21T06:32:36.965Z,21.51
2023-05-21T06:33:36.889Z,21.51
2023-05-21T06:34:36.764Z,21.52
2023-05-21T06:35:37.022Z,21.52
2023-05-21T06:36:36.717Z,21.53
2023-05-21T06:37:36.683Z,21.53
2023-05-21T06:38:36.645Z,21.55
2023-05-21T06:39:36.635Z,21.55
2023-05-21T06:40:36.606Z,21.61
2023-05-21T06:41:36.607Z,21.66
2023-05-21T06:42:36.543Z,21.68
2023-05-21T06:43:36.495Z,21.70
2023-05-21T06:44:36.468Z,21.73
2023-05-21T06:45:36.787Z,21.77
2023-05-21T06:46:36.442Z,21.82
2023-05-21T06:47:36.375Z,21.83
2023-05-21T06:48:36.368Z,21.89
2023-05-21T06:49:36.374Z,21.93
2023-05-21T06:50:36.285Z,21.98
2023-05-21T06:51:36.238Z,22.01
2023-05-21T06:52:36.192Z,22.02
2023-05-21T06:53:36.148Z,22.06
2023-05-21T06:54:36.133Z,22.08
2023-05-21T06:55:36.295Z,22.14
2023-05-21T06:56:36.052Z,22.20
2023-05-21T06:57:36.000Z,22.23
2023-05-21T06:58:35.986Z,22.27
2023-05-21T06:59:35.936Z,22.33
2023-05-21T07:00:35.904Z,22.39
2023-05-21T07:01:35.875Z,22.46
2023-05-21T07:02:35.860Z,22.52
2023-05-21T07:03:35.802Z,22.60
2023-05-21T07:04:35.734Z,22.66
2023-05-21T07:05:35.848Z,22.74
2023-05-21T07:06:35.627Z,22.79
2023-05-21T07:07:35.575Z,22.88
2023-05-21T07:08:35.526Z,22.96
2023-05-21T07:09:35.495Z,23.04
2023-05-21T07:10:35.437Z,23.16
2023-05-21T07:11:35.383Z,23.31
2023-05-21T07:12:35.350Z,23.42
2023-05-21T07:13:35.303Z,23.50
2023-05-21T07:14:35.262Z,23.57
2023-05-21T07:15:35.555Z,23.67
2023-05-21T07:16:35.176Z,23.72
2023-05-21T07:17:35.149Z,23.81
2023-05-21T07:18:35.118Z,23.93
2023-05-21T07:19:34.993Z,24.02
2023-05-21T07:20:34.995Z,24.08
2023-05-21T07:21:34.912Z,24.12
2023-05-21T07:22:34.842Z,24.09
2023-05-21T07:23:34.804Z,24.12
2023-05-21T07:24:34.736Z,24.16
2023-05-21T07:25:34.844Z,24.14
2023-05-21T07:26:34.659Z,24.08
2023-05-21T07:27:34.616Z,24.06
2023-05-21T07:28:34.624Z,24.06
2023-05-21T07:29:34.526Z,24.11
2023-05-21T07:30:34.508Z,24.16
2023-05-21T07:31:34.607Z,24.26
2023-05-21T07:32:34.486Z,24.18
2023-05-21T07:33:34.419Z,24.18
2023-05-21T07:34:34.365Z,24.16
2023-05-21T07:35:34.561Z,24.18
2023-05-21T07:36:34.318Z,24.23
2023-05-21T07:37:34.340Z,24.29
2023-05-21T07:38:34.222Z,24.27
2023-05-21T07:39:34.170Z,24.37
2023-05-21T07:40:34.128Z,24.51
2023-05-21T07:41:34.088Z,24.66
2023-05-21T07:42:34.026Z,24.80
2023-05-21T07:43:33.975Z,24.77
2023-05-21T07:44:33.905Z,24.74
2023-05-21T07:45:33.869Z,24.75
2023-05-21T07:46:33.841Z,24.74
2023-05-21T07:47:33.864Z,24.77
2023-05-21T07:48:35.395Z,24.84
2023-05-21T07:49:33.625Z,24.87
2023-05-21T07:50:33.587Z,24.97
2023-05-21T07:51:33.570Z,25.05
2023-05-21T07:52:33.565Z,25.14
2023-05-21T07:53:33.425Z,25.26
2023-05-21T07:54:33.384Z,25.31
2023-05-21T08:02:54.091Z,24.37
2023-05-21T08:03:24.965Z,24.31
2023-05-21T09:29:16.455Z,23.31
2023-05-21T09:29:47.679Z,23.32
2023-05-21T09:30:17.916Z,23.32
2023-05-21T09:30:48.225Z,23.34
2023-05-21T09:31:18.483Z,23.34
2023-05-21T09:31:48.849Z,23.32
2023-05-21T09:32:19.135Z,23.34
2023-05-21T09:32:49.405Z,23.35
2023-05-21T09:33:19.662Z,23.35
2023-05-21T09:33:49.897Z,23.35
2023-05-21T09:35:09.827Z,23.38
2023-05-21T09:35:41.077Z,23.37
2023-05-21T09:36:11.314Z,23.38
2023-05-21T09:36:41.575Z,23.38
2023-05-21T09:37:23.672Z,23.38
2023-05-21T09:37:41.991Z,23.39
2023-05-21T09:38:12.238Z,23.39
2023-05-21T09:38:42.520Z,23.39
2023-05-21T09:39:12.744Z,23.39
2023-05-21T09:39:43.019Z,23.42
2023-05-21T09:40:13.221Z,23.44
2023-05-21T09:40:43.476Z,23.44
2023-05-21T09:41:13.715Z,23.45
2023-05-21T09:41:43.971Z,23.44
2023-05-21T09:42:14.216Z,23.47
2023-05-21T09:42:44.463Z,23.49
2023-05-21T09:43:14.727Z,23.47
2023-05-21T09:43:44.962Z,23.49
2023-05-21T09:44:15.211Z,23.49
2023-05-21T09:44:45.434Z,23.49
2023-05-21T09:45:15.678Z,23.50
2023-05-21T09:45:45.940Z,23.50
2023-05-21T09:46:16.257Z,23.50
2023-05-21T09:46:46.561Z,23.52
2023-05-21T09:47:16.805Z,23.50
2023-05-21T09:47:47.056Z,23.52
2023-05-21T09:48:17.302Z,23.56
2023-05-21T09:48:47.552Z,23.56
2023-05-21T09:49:17.790Z,23.57
2023-05-21T09:49:48.041Z,23.57
2023-05-21T09:50:18.344Z,23.59
2023-05-21T09:50:48.566Z,23.57
2023-05-21T09:51:18.864Z,23.59
2023-05-21T09:51:49.094Z,23.59
2023-05-21T09:52:19.339Z,23.60
2023-05-21T09:52:49.573Z,23.62
2023-05-21T09:53:19.814Z,23.62
2023-05-21T09:53:50.053Z,23.63
2023-05-21T09:54:20.289Z,23.63
2023-05-21T09:54:50.543Z,23.64
2023-05-21T09:55:20.774Z,23.63
2023-05-21T09:55:51.021Z,23.64
2023-05-21T09:56:21.282Z,23.64
2023-05-21T09:56:51.536Z,23.63
2023-05-21T09:57:21.776Z,23.63
2023-05-21T09:57:52.001Z,23.63
2023-05-21T09:58:22.251Z,23.62
2023-05-21T09:58:52.506Z,23.62
2023-05-21T09:59:22.740Z,23.60
2023-05-21T09:59:52.968Z,23.60
2023-05-21T10:00:23.210Z,23.60
2023-05-21T10:00:53.480Z,23.60
2023-05-21T10:01:23.836Z,23.59
2023-05-21T10:01:54.182Z,23.59
2023-05-21T10:02:24.482Z,23.59
2023-05-21T10:02:54.820Z,23.57
2023-05-21T10:03:25.110Z,23.59
2023-05-21T10:03:55.395Z,23.57
2023-05-21T10:04:25.661Z,23.59
2023-05-21T10:04:55.916Z,23.59
2023-05-21T10:05:26.219Z,23.60
2023-05-21T10:05:56.483Z,23.60
2023-05-21T10:06:26.718Z,23.59
2023-05-21T10:06:56.941Z,23.59
2023-05-21T10:07:27.441Z,23.57
2023-05-21T10:07:57.705Z,23.57
2023-05-21T10:08:27.956Z,23.59
2023-05-21T10:08:58.210Z,23.57
2023-05-21T10:09:28.433Z,23.57
2023-05-21T10:09:58.697Z,23.57
2023-05-21T10:10:28.957Z,23.59
2023-05-21T10:10:59.261Z,23.60
2023-05-21T10:11:29.535Z,23.59
2023-05-21T10:11:59.768Z,23.59
2023-05-21T10:12:30.013Z,23.60
2023-05-21T10:13:00.256Z,23.60
2023-05-21T10:13:30.500Z,23.60
2023-05-21T10:14:00.741Z,23.60
2023-05-21T10:14:30.981Z,23.60
2023-05-21T10:15:01.258Z,23.60
2023-05-21T10:15:31.484Z,23.60
2023-05-21T10:16:01.789Z,23.60
2023-05-21T10:16:32.106Z,23.59
2023-05-21T10:17:02.323Z,23.62
2023-05-21T10:17:32.608Z,23.57
2023-05-21T10:18:02.945Z,23.59
2023-05-21T10:18:33.186Z,23.59
2023-05-21T10:19:03.465Z,23.59
2023-05-21T10:19:33.781Z,23.57
2023-05-21T10:20:04.043Z,23.57
2023-05-21T10:20:34.430Z,23.56
2023-05-21T10:21:04.771Z,23.56
2023-05-21T10:21:35.007Z,23.57
2023-05-21T10:22:05.249Z,23.57
2023-05-21T10:22:35.493Z,23.56
2023-05-21T10:23:05.737Z,23.56
2023-05-21T10:23:35.980Z,23.56
2023-05-21T10:24:06.217Z,23.54
2023-05-21T10:24:36.473Z,23.54
2023-05-21T10:25:06.721Z,23.53
2023-05-21T10:25:36.953Z,23.54
2023-05-21T10:26:07.207Z,23.53
2023-05-21T10:26:37.447Z,23.53
2023-05-21T10:27:07.697Z,23.53
2023-05-21T10:27:37.938Z,23.53
2023-05-21T10:28:08.187Z,23.52
2023-05-21T10:28:38.458Z,23.50
2023-05-21T10:29:08.713Z,23.50
2023-05-21T10:29:38.937Z,23.50
2023-05-21T10:30:09.148Z,23.50
2023-05-21T10:30:39.585Z,23.49
2023-05-21T10:31:09.879Z,23.50
2023-05-21T10:31:40.121Z,23.49
2023-05-21T10:32:10.357Z,23.47
2023-05-21T10:32:40.670Z,23.47
2023-05-21T10:33:10.972Z,23.45
2023-05-21T10:33:41.229Z,23.45
2023-05-21T10:34:11.450Z,23.45
2023-05-21T10:34:41.664Z,23.47
2023-05-21T10:35:11.911Z,23.45
2023-05-21T10:35:42.141Z,23.47
2023-05-21T10:36:12.338Z,23.49
2023-05-21T10:36:42.551Z,23.49
2023-05-21T10:37:12.776Z,23.50
2023-05-21T10:37:42.988Z,23.50
2023-05-21T10:38:13.230Z,23.52
2023-05-21T10:38:43.468Z,23.50
2023-05-21T10:39:13.680Z,23.53
2023-05-21T10:39:43.913Z,23.52
2023-05-21T10:40:14.130Z,23.52
2023-05-21T10:40:44.347Z,23.52
2023-05-21T10:41:14.573Z,23.52
2023-05-21T10:41:44.784Z,23.52
2023-05-21T10:42:14.999Z,23.53
2023-05-21T10:42:45.232Z,23.52
2023-05-21T10:43:15.463Z,23.53
2023-05-21T10:43:45.682Z,23.52
2023-05-21T10:44:15.889Z,23.52
2023-05-21T10:44:46.106Z,23.50
2023-05-21T10:45:16.320Z,23.47
2023-05-21T10:45:46.611Z,23.45
2023-05-21T10:46:16.926Z,23.45
2023-05-21T10:46:47.206Z,23.42
2023-05-21T10:47:17.429Z,23.42
2023-05-21T10:47:47.683Z,23.41
2023-05-21T10:48:17.901Z,23.41
2023-05-21T10:48:48.111Z,23.39
2023-05-21T10:49:18.327Z,23.39
2023-05-21T10:49:48.548Z,23.38
2023-05-21T10:50:18.774Z,23.37
2023-05-21T10:50:48.997Z,23.35
2023-05-21T10:51:19.230Z,23.35
2023-05-21T10:51:49.442Z,23.34
2023-05-21T10:52:19.672Z,23.34
2023-05-21T10:52:49.917Z,23.32
2023-05-21T10:53:20.146Z,23.31
2023-05-21T10:53:50.389Z,23.31
2023-05-21T10:54:20.616Z,23.31
2023-05-21T10:54:50.834Z,23.26
2023-05-21T10:55:21.116Z,23.29
2023-05-21T10:55:51.329Z,23.26
2023-05-21T10:56:21.564Z,23.26
2023-05-21T10:56:51.804Z,23.26
2023-05-21T10:57:22.066Z,23.25
2023-05-21T10:57:52.297Z,23.25
2023-05-21T10:58:22.531Z,23.25
2023-05-21T10:58:52.774Z,23.23
2023-05-21T10:59:23.011Z,23.22
2023-05-21T10:59:53.245Z,23.23
2023-05-21T11:00:23.453Z,23.21
2023-05-21T11:00:53.738Z,23.21
2023-05-21T11:01:24.017Z,23.21
2023-05-21T11:01:54.304Z,23.21
2023-05-21T11:02:24.616Z,23.19
2023-05-21T11:02:54.958Z,23.19
2023-05-21T11:03:25.355Z,23.19
2023-05-21T11:03:55.647Z,23.18
2023-05-21T11:04:25.849Z,23.16
2023-05-21T11:04:56.071Z,23.18
2023-05-21T11:05:26.286Z,23.16
2023-05-21T11:05:56.532Z,23.16
2023-05-21T11:06:26.764Z,23.15
2023-05-21T11:06:56.977Z,23.15
2023-05-21T11:07:27.193Z,23.15
2023-05-21T11:07:57.448Z,23.15
2023-05-21T11:08:27.708Z,23.14
2023-05-21T11:08:57.936Z,23.14
2023-05-21T11:09:28.158Z,23.12
2023-05-21T11:09:58.375Z,23.12
2023-05-21T11:10:28.589Z,23.12
2023-05-21T11:10:58.856Z,23.11
2023-05-21T11:11:29.073Z,23.11
2023-05-21T11:11:59.293Z,23.12
2023-05-21T11:12:29.538Z,23.11
2023-05-21T11:12:59.723Z,23.09
2023-05-21T11:13:29.973Z,23.09
2023-05-21T11:14:00.218Z,23.07
2023-05-21T11:14:30.450Z,23.11
2023-05-21T11:15:00.674Z,23.09
2023-05-21T11:15:30.899Z,23.09
2023-05-21T11:16:01.129Z,23.09
2023-05-21T11:16:31.377Z,23.07
2023-05-21T11:17:01.696Z,23.07
2023-05-21T11:17:32.037Z,23.07
2023-05-21T11:18:02.262Z,23.07
2023-05-21T11:18:32.508Z,23.07
2023-05-21T11:19:03.020Z,23.06
2023-05-21T11:19:34.135Z,23.07
2023-05-21T11:20:03.598Z,23.06
2023-05-21T11:20:33.875Z,23.06
2023-05-21T11:21:04.081Z,23.04
2023-05-21T11:21:34.279Z,23.04
2023-05-21T11:22:04.501Z,23.04
2023-05-21T11:22:34.721Z,23.04
2023-05-21T11:23:04.949Z,23.04
2023-05-21T11:23:35.160Z,23.04
2023-05-21T11:24:05.380Z,23.03
2023-05-21T11:24:35.608Z,23.03
2023-05-21T11:25:05.846Z,23.04
2023-05-21T11:25:36.061Z,23.04
2023-05-21T11:26:06.295Z,23.04
2023-05-21T11:26:36.511Z,23.03
2023-05-21T11:27:06.774Z,23.04
2023-05-21T11:27:37.030Z,23.01
2023-05-21T11:28:07.261Z,23.01
2023-05-21T11:28:37.466Z,23.01
2023-05-21T11:29:07.706Z,23.03
2023-05-21T11:29:37.925Z,23.00
2023-05-21T11:30:08.201Z,23.00
2023-05-21T11:30:40.930Z,23.00
2023-05-21T11:31:09.322Z,23.01
2023-05-21T11:31:39.772Z,23.00
2023-05-21T11:32:10.070Z,23.01
2023-05-21T11:32:40.351Z,23.01
2023-05-21T11:33:10.599Z,23.00
2023-05-21T11:33:40.854Z,23.01
2023-05-21T11:34:11.115Z,23.00
2023-05-21T11:34:41.320Z,23.01
2023-05-21T11:35:11.541Z,23.01
2023-05-21T11:35:41.739Z,23.00
2023-05-21T11:36:11.961Z,23.00
2023-05-21T11:36:42.185Z,23.00
2023-05-21T11:37:12.401Z,23.00
2023-05-21T11:37:42.623Z,23.00
2023-05-21T11:38:12.848Z,23.01
2023-05-21T11:38:43.071Z,23.00
2023-05-21T11:39:13.317Z,23.01
2023-05-21T11:39:43.541Z,23.00
2023-05-21T11:40:13.747Z,23.00
2023-05-21T11:40:43.982Z,23.00
2023-05-21T11:41:14.209Z,23.01
2023-05-21T11:41:44.420Z,23.01
2023-05-21T11:42:14.639Z,23.01
2023-05-21T11:42:44.849Z,23.01
2023-05-21T11:43:15.098Z,23.01
2023-05-21T11:43:45.324Z,23.01
2023-05-21T11:44:15.544Z,23.00
2023-05-21T11:44:45.781Z,23.01
2023-05-21T11:45:15.987Z,23.00
2023-05-21T11:45:46.208Z,23.01
2023-05-21T11:46:16.455Z,23.01
2023-05-21T11:46:46.706Z,23.00
2023-05-21T11:47:16.921Z,23.01
2023-05-21T11:47:47.177Z,23.00
2023-05-21T11:48:17.426Z,23.01
2023-05-21T11:48:47.628Z,23.00
2023-05-21T11:49:17.853Z,23.00
2023-05-21T11:49:48.089Z,23.00
2023-05-21T11:50:18.299Z,23.01
2023-05-21T11:50:48.510Z,23.01
2023-05-21T11:51:18.732Z,23.00
2023-05-21T11:51:48.938Z,23.00
2023-05-21T11:52:19.164Z,23.01
2023-05-21T11:52:49.403Z,23.00
2023-05-21T11:53:19.652Z,23.00
2023-05-21T11:53:49.862Z,23.00
2023-05-21T11:54:20.057Z,22.99
2023-05-21T11:54:50.276Z,23.00
2023-05-21T11:55:20.491Z,22.99
2023-05-21T11:55:50.790Z,23.00
2023-05-21T11:56:20.978Z,22.99
2023-05-21T11:56:51.201Z,22.99
2023-05-21T11:57:21.420Z,22.99
2023-05-21T11:57:51.641Z,22.97
2023-05-21T11:58:21.864Z,22.99
2023-05-21T11:58:52.080Z,22.97